createdAt,value
2023-05-10T00:01:22.199Z,2.38
2023-05-10T00:03:50.282Z,2.13
2023-05-10T00:06:18.332Z,2.45
2023-05-10T00:08:47.698Z,2.47
2023-05-10T00:11:15.670Z,2.30
2023-05-10T00:13:43.660Z,2.30
2023-05-10T00:16:13.101Z,2.55
2023-05-10T00:18:41.195Z,2.40
2023-05-10T00:21:09.153Z,2.67
2023-05-10T00:23:37.020Z,2.67
2023-05-10T00:26:06.384Z,3.13
2023-05-10T00:28:34.269Z,3.10
2023-05-10T00:31:02.098Z,3.17
2023-05-10T00:33:31.608Z,2.95
2023-05-10T00:35:59.471Z,3.10
2023-05-10T00:38:27.380Z,3.20
2023-05-10T00:40:55.320Z,3.83
2023-05-10T00:43:30.977Z,4.07
2023-05-10T00:45:59.509Z,4.03
2023-05-10T00:48:27.974Z,3.95
2023-05-10T00:50:55.907Z,4.28
2023-05-10T00:53:24.009Z,4.10
2023-05-10T00:55:52.131Z,4.60
2023-05-10T00:58:20.678Z,4.82
2023-05-10T01:00:50.680Z,4.95
2023-05-10T01:03:19.409Z,5.20
2023-05-10T01:05:47.558Z,5.53
2023-05-10T01:08:15.765Z,5.07
2023-05-10T01:10:44.737Z,5.95
2023-05-10T01:13:13.602Z,5.70
2023-05-10T01:15:42.810Z,5.30
2023-05-10T01:18:12.374Z,5.78
2023-05-10T01:20:48.044Z,5.65
2023-05-10T01:23:39.708Z,6.43
2023-05-10T01:26:26.757Z,7.53
2023-05-10T01:29:16.230Z,7.07
2023-05-10T01:32:22.392Z,6.88
2023-05-10T01:35:01.816Z,7.05
2023-05-10T01:37:43.999Z,7.70
2023-05-10T01:40:20.444Z,7.80
2023-05-10T01:42:52.460Z,7.57
2023-05-10T01:45:27.648Z,7.07
2023-05-10T01:48:04.325Z,8.43
2023-05-10T01:50:34.944Z,8.88
2023-05-10T01:53:04.363Z,8.90
2023-05-10T01:55:35.675Z,9.52
2023-05-10T01:58:07.749Z,9.05
2023-05-10T02:00:37.229Z,9.70
2023-05-10T02:03:12.447Z,8.80
2023-05-10T02:05:42.358Z,9.48
2023-05-10T02:08:11.462Z,9.82
2023-05-10T02:10:41.398Z,9.40
2023-05-10T02:13:12.094Z,8.35
2023-05-10T02:15:41.545Z,9.32
2023-05-10T02:18:13.283Z,9.30
2023-05-10T02:20:41.615Z,8.55
2023-05-10T02:23:11.891Z,8.68
2023-05-10T02:25:40.750Z,8.55
2023-05-10T02:28:10.121Z,8.73
2023-05-10T02:30:38.832Z,7.63
2023-05-10T02:33:08.387Z,6.78
2023-05-10T02:35:40.034Z,7.78
2023-05-10T02:38:09.645Z,7.20
2023-05-10T02:40:38.889Z,6.72
2023-05-10T02:43:08.359Z,5.93
2023-05-10T02:45:39.861Z,6.50
2023-05-10T02:48:08.631Z,6.43
2023-05-10T02:50:39.346Z,5.85
2023-05-10T02:53:12.827Z,5.65
2023-05-10T02:55:43.070Z,6.00
2023-05-10T02:58:11.173Z,5.72
2023-05-10T03:00:39.100Z,5.47
2023-05-10T03:03:07.816Z,4.30
2023-05-10T03:05:37.179Z,3.47
2023-05-10T03:08:07.211Z,3.08
2023-05-10T03:10:43.605Z,3.08
2023-05-10T03:13:19.175Z,3.60
2023-05-10T03:15:57.657Z,2.92
2023-05-10T03:18:31.459Z,2.97
2023-05-10T03:21:06.910Z,3.13
2023-05-10T03:23:38.523Z,3.72
2023-05-10T03:26:08.007Z,3.25
2023-05-10T03:28:36.763Z,3.15
2023-05-10T03:31:07.899Z,3.40
2023-05-10T03:33:36.283Z,3.58
2023-05-10T03:36:06.438Z,3.53
2023-05-10T03:38:34.448Z,4.07
2023-05-10T03:41:02.982Z,3.22
2023-05-10T03:43:30.907Z,3.90
2023-05-10T03:45:59.227Z,3.67
2023-05-10T03:48:27.178Z,3.90
2023-05-10T03:50:55.097Z,4.07
2023-05-10T03:53:24.815Z,4.88
2023-05-10T03:55:53.183Z,3.83
2023-05-10T03:58:21.328Z,4.38
2023-05-10T04:00:49.332Z,3.88
2023-05-10T04:03:17.434Z,3.75
2023-05-10T04:05:45.594Z,3.53
2023-05-10T04:08:13.700Z,5.38
2023-05-10T04:10:43.041Z,5.20
2023-05-10T04:13:11.006Z,7.78
2023-05-10T04:15:38.984Z,6.78
2023-05-10T04:18:08.872Z,9.23
2023-05-10T04:20:36.968Z,9.30
2023-05-10T04:23:04.939Z,9.73
2023-05-10T04:25:35.873Z,11.05
2023-05-10T04:28:05.655Z,13.15
2023-05-10T04:30:33.671Z,13.30
2023-05-10T04:33:02.910Z,13.18
2023-05-10T04:35:30.936Z,13.35
2023-05-10T04:37:58.820Z,13.40
2023-05-10T04:40:26.798Z,14.65
2023-05-10T04:42:55.200Z,13.90
2023-05-10T04:45:24.513Z,13.65
2023-05-10T04:47:52.477Z,14.15
2023-05-10T04:50:20.443Z,13.60
2023-05-10T04:52:48.341Z,12.75
2023-05-10T04:55:16.535Z,12.93
2023-05-10T04:57:44.351Z,14.18
2023-05-10T05:00:13.264Z,13.50
2023-05-10T05:02:44.735Z,13.55
2023-05-10T05:05:12.831Z,13.60
2023-05-10T05:07:40.668Z,14.10
2023-05-10T05:10:11.070Z,14.85
2023-05-10T05:12:39.192Z,14.10
2023-05-10T05:15:09.948Z,14.82
2023-05-10T05:17:37.942Z,15.95
2023-05-10T05:20:09.168Z,15.80
2023-05-10T05:22:37.983Z,16.17
2023-05-10T05:25:07.124Z,16.55
2023-05-10T05:27:35.033Z,17.48
2023-05-10T05:30:03.361Z,16.95
2023-05-10T05:32:31.875Z,16.95
2023-05-10T05:35:00.324Z,18.95
2023-05-10T05:37:29.779Z,19.38
2023-05-10T05:40:07.552Z,20.95
2023-05-10T05:42:35.652Z,21.33
2023-05-10T05:45:06.383Z,20.98
2023-05-10T05:47:34.267Z,21.65
2023-05-10T05:50:02.161Z,21.92
2023-05-10T05:52:32.595Z,22.45
2023-05-10T05:55:01.261Z,22.40
2023-05-10T05:57:29.172Z,24.17
2023-05-10T05:59:57.101Z,24.92
2023-05-10T06:02:25.019Z,26.00
2023-05-10T06:04:53.043Z,23.85
2023-05-10T06:07:21.294Z,24.88
2023-05-10T06:09:50.637Z,24.10
2023-05-10T06:12:18.582Z,26.45
2023-05-10T06:14:46.494Z,26.80
2023-05-10T06:17:14.380Z,25.67
2023-05-10T06:19:42.337Z,25.92
2023-05-10T06:22:10.272Z,26.27
2023-05-10T06:24:38.116Z,24.92
2023-05-10T06:27:08.258Z,24.90
2023-05-10T06:29:36.324Z,25.42
2023-05-10T06:32:04.275Z,26.05
2023-05-10T06:34:32.545Z,25.60
2023-05-10T06:37:00.598Z,26.13
2023-05-10T06:39:28.480Z,26.17
2023-05-10T06:41:56.481Z,27.45
2023-05-10T06:44:25.768Z,27.48
2023-05-10T06:46:54.724Z,25.20
2023-05-10T06:49:22.706Z,26.15
2023-05-10T06:51:50.558Z,25.40
2023-05-10T06:54:18.690Z,26.48
2023-05-10T06:56:47.044Z,28.08
2023-05-10T06:59:16.310Z,27.02
2023-05-10T07:01:45.595Z,26.17
2023-05-10T07:04:14.019Z,28.10
2023-05-10T07:06:41.994Z,27.42
2023-05-10T07:09:09.984Z,28.33
2023-05-10T07:11:38.509Z,29.15
2023-05-10T07:14:06.404Z,29.52
2023-05-10T07:16:34.354Z,28.10
2023-05-10T07:19:03.779Z,25.63
2023-05-10T07:21:32.277Z,26.50
2023-05-10T07:24:01.200Z,27.73
2023-05-10T07:26:29.453Z,28.33
2023-05-10T07:28:58.425Z,26.42
2023-05-10T07:31:26.280Z,28.60
2023-05-10T07:33:54.274Z,27.40
2023-05-10T07:36:23.522Z,27.02
2023-05-10T07:38:51.560Z,26.13
2023-05-10T07:41:19.483Z,26.50
2023-05-10T07:43:47.340Z,25.58
2023-05-10T07:46:15.329Z,25.00
2023-05-10T07:48:43.340Z,24.27
2023-05-10T07:51:11.696Z,25.60
2023-05-10T07:53:41.049Z,22.40
2023-05-10T07:56:23.779Z,21.50
2023-05-10T07:58:51.869Z,21.23
2023-05-10T08:01:20.134Z,20.02
2023-05-10T08:03:48.212Z,19.92
2023-05-10T08:06:16.977Z,18.25
2023-05-10T08:08:50.298Z,18.92
2023-05-10T08:11:18.623Z,17.38
2023-05-10T08:13:46.721Z,16.20
2023-05-10T08:16:15.093Z,17.92
2023-05-10T08:18:43.088Z,18.20
2023-05-10T08:21:12.269Z,19.50
2023-05-10T08:23:40.290Z,19.08
2023-05-10T08:26:09.547Z,19.15
2023-05-10T08:28:37.490Z,17.80
2023-05-10T08:31:07.060Z,18.85
2023-05-10T08:33:35.210Z,19.00
2023-05-10T08:36:03.440Z,19.08
2023-05-10T08:38:31.773Z,20.17
2023-05-10T08:41:01.730Z,19.58
2023-05-10T08:43:32.263Z,19.48
2023-05-10T08:46:02.641Z,21.90
2023-05-10T08:48:31.823Z,21.55
2023-05-10T08:51:03.043Z,21.98
2023-05-10T08:53:33.113Z,23.67
2023-05-10T08:56:01.273Z,18.20
2023-05-10T08:58:30.646Z,16.58
2023-05-10T09:00:59.351Z,12.57
2023-05-10T09:03:27.524Z,12.55
2023-05-10T09:05:56.810Z,11.82
2023-05-10T09:08:26.829Z,11.50
2023-05-10T09:10:55.350Z,10.63
2023-05-10T09:13:25.250Z,10.65
2023-05-10T09:15:55.284Z,9.48
2023-05-10T09:18:23.264Z,10.82
2023-05-10T09:20:51.520Z,11.23
2023-05-10T09:23:19.393Z,11.85
2023-05-10T09:25:47.482Z,14.15
2023-05-10T09:28:15.427Z,14.70
2023-05-10T09:30:44.021Z,15.52
2023-05-10T09:33:13.291Z,14.82
2023-05-10T09:35:41.525Z,14.35
2023-05-10T09:38:09.688Z,15.82
2023-05-10T09:40:37.657Z,14.95
2023-05-10T09:43:09.400Z,14.82
2023-05-10T09:45:39.130Z,14.55
2023-05-10T09:48:07.771Z,14.93
2023-05-10T09:50:37.666Z,14.05
2023-05-10T09:53:05.796Z,14.65
2023-05-10T09:55:42.150Z,14.73
2023-05-10T09:58:11.910Z,15.13
2023-05-10T10:00:41.321Z,15.13
2023-05-10T10:03:15.060Z,14.95
2023-05-10T10:05:45.903Z,13.65
2023-05-10T10:08:14.681Z,12.10
2023-05-10T10:10:46.189Z,10.75
2023-05-10T10:13:14.730Z,11.13
2023-05-10T10:15:44.205Z,10.15
2023-05-10T10:18:15.801Z,10.60
2023-05-10T10:20:45.358Z,9.13
2023-05-10T10:23:14.188Z,8.43
2023-05-10T10:25:45.422Z,8.27
2023-05-10T10:28:26.154Z,7.20
2023-05-10T10:30:58.414Z,7.47
2023-05-10T10:33:53.232Z,7.63
2023-05-10T10:36:22.691Z,7.75
2023-05-10T10:39:05.085Z,7.60
2023-05-10T10:41:35.054Z,6.65
2023-05-10T10:44:25.583Z,7.40
2023-05-10T10:47:09.587Z,5.60
2023-05-10T10:49:45.276Z,6.20
2023-05-10T10:52:30.179Z,6.88
2023-05-10T10:55:03.862Z,7.43
2023-05-10T10:57:35.437Z,7.28
2023-05-10T11:00:38.018Z,8.07
2023-05-10T11:03:08.407Z,7.18
2023-05-10T11:05:41.963Z,7.15
2023-05-10T11:08:19.723Z,7.63
2023-05-10T11:11:08.017Z,8.30
2023-05-10T11:13:39.914Z,9.30
2023-05-10T11:16:16.822Z,13.13
2023-05-10T11:18:55.981Z,13.77
2023-05-10T11:21:24.346Z,13.80
2023-05-10T11:23:57.314Z,14.35
2023-05-10T11:26:27.050Z,13.50
2023-05-10T11:28:57.318Z,13.27
2023-05-10T11:31:27.618Z,11.73
2023-05-10T11:33:57.486Z,11.27
2023-05-10T11:36:27.344Z,10.90
2023-05-10T11:38:57.643Z,10.23
2023-05-10T11:41:27.028Z,9.85
2023-05-10T11:43:56.506Z,9.77
2023-05-10T11:46:26.258Z,11.02
2023-05-10T11:48:56.102Z,10.45
2023-05-10T11:51:25.928Z,9.45
2023-05-10T11:53:57.474Z,9.15
2023-05-10T11:56:27.202Z,11.02
2023-05-10T11:58:56.444Z,11.93
2023-05-10T12:01:24.905Z,10.15
2023-05-10T12:03:54.842Z,11.63
2023-05-10T12:06:23.563Z,11.43
2023-05-10T12:08:53.500Z,12.68
2023-05-10T12:11:27.259Z,11.82
2023-05-10T12:13:56.256Z,11.95
2023-05-10T12:16:26.246Z,11.95
2023-05-10T12:18:57.733Z,11.55
2023-05-10T12:21:26.116Z,11.75
2023-05-10T12:23:56.585Z,11.55
2023-05-10T12:26:27.427Z,12.38
2023-05-10T12:28:55.616Z,10.68
2023-05-10T12:31:23.602Z,12.02
2023-05-10T12:33:51.557Z,10.77
2023-05-10T12:36:26.352Z,11.52
2023-05-10T12:39:05.809Z,10.25
2023-05-10T12:41:35.248Z,10.32
2023-05-10T12:44:03.749Z,9.20
2023-05-10T12:46:32.225Z,8.80
2023-05-10T12:49:08.377Z,9.65
2023-05-10T12:51:37.236Z,9.32
2023-05-10T12:54:05.351Z,9.13
2023-05-10T12:56:33.379Z,8.95
2023-05-10T12:59:02.724Z,9.43
2023-05-10T13:01:30.781Z,8.57
2023-05-10T13:03:58.712Z,8.93
2023-05-10T13:06:26.723Z,8.20
2023-05-10T13:08:54.686Z,9.13
2023-05-10T13:11:22.625Z,9.90
2023-05-10T13:13:50.579Z,8.20
2023-05-10T13:16:19.800Z,8.25
2023-05-10T13:18:47.754Z,7.15
2023-05-10T13:21:15.827Z,7.70
2023-05-10T13:23:43.771Z,7.10
2023-05-10T13:26:11.742Z,7.05
2023-05-10T13:28:39.828Z,7.32
2023-05-10T13:31:07.776Z,8.15
2023-05-10T13:33:37.060Z,9.32
2023-05-10T13:36:05.460Z,7.32
2023-05-10T13:38:33.545Z,7.38
2023-05-10T13:41:01.468Z,7.32
2023-05-10T13:43:29.409Z,7.72
2023-05-10T13:45:57.458Z,7.53
2023-05-10T13:48:25.321Z,7.60
2023-05-10T13:50:54.582Z,7.45
2023-05-10T13:53:22.707Z,7.60
2023-05-10T13:55:51.096Z,7.45
2023-05-10T13:58:19.098Z,7.50
2023-05-10T14:00:47.000Z,8.10
2023-05-10T14:03:14.989Z,8.43
2023-05-10T14:05:42.980Z,8.40
2023-05-10T14:08:14.106Z,8.38
2023-05-10T14:10:42.015Z,7.28
2023-05-10T14:13:09.889Z,8.52
2023-05-10T14:15:37.738Z,10.15
2023-05-10T14:18:05.692Z,9.10
2023-05-10T14:20:34.747Z,9.25
2023-05-10T14:23:02.638Z,8.73
2023-05-10T14:25:31.956Z,7.53
2023-05-10T14:27:59.836Z,8.50
2023-05-10T14:30:27.966Z,7.30
2023-05-10T14:32:56.467Z,6.18
2023-05-10T14:35:24.822Z,6.47
2023-05-10T14:37:52.924Z,7.25
2023-05-10T14:40:21.981Z,6.65
2023-05-10T14:42:53.856Z,5.93
2023-05-10T14:45:22.555Z,5.88
2023-05-10T14:47:51.113Z,6.07
2023-05-10T14:50:32.316Z,6.78
2023-05-10T14:53:03.214Z,6.20
2023-05-10T14:55:31.086Z,5.78
2023-05-10T14:58:00.424Z,5.72
2023-05-10T15:00:29.985Z,5.65
2023-05-10T15:02:58.461Z,6.25
2023-05-10T15:05:27.209Z,5.40
2023-05-10T15:07:55.837Z,5.07
2023-05-10T15:10:23.808Z,5.50
2023-05-10T15:12:52.490Z,3.80
2023-05-10T15:15:21.841Z,5.00
2023-05-10T15:17:49.883Z,3.85
2023-05-10T15:20:18.108Z,4.35
2023-05-10T15:22:46.025Z,3.17
2023-05-10T15:25:14.196Z,3.30
2023-05-10T15:27:44.461Z,3.25
2023-05-10T15:30:13.249Z,2.92
2023-05-10T15:32:43.761Z,2.88
2023-05-10T15:35:12.196Z,2.72
2023-05-10T15:37:40.313Z,2.50
2023-05-10T15:40:10.188Z,2.65
2023-05-10T15:42:38.065Z,2.45
2023-05-10T15:45:07.067Z,2.60
2023-05-10T15:47:35.158Z,2.38
2023-05-10T15:50:04.730Z,2.97
2023-05-10T15:52:32.639Z,2.38
2023-05-10T15:55:00.414Z,2.92
2023-05-10T15:57:28.184Z,2.60
2023-05-10T15:59:56.344Z,3.38
2023-05-10T16:02:24.313Z,3.30
2023-05-10T16:04:52.741Z,3.90
2023-05-10T16:07:23.932Z,4.10
2023-05-10T16:09:51.750Z,3.50
2023-05-10T16:12:19.961Z,3.72
2023-05-10T16:14:48.068Z,3.72
2023-05-10T16:17:16.341Z,3.40
2023-05-10T16:19:44.513Z,3.42
2023-05-10T16:22:12.441Z,3.47
2023-05-10T16:24:42.415Z,3.55
2023-05-10T16:27:10.311Z,3.78
2023-05-10T16:29:38.248Z,3.40
2023-05-10T16:32:06.474Z,3.75
2023-05-10T16:34:34.390Z,3.80
2023-05-10T16:37:02.387Z,3.45
2023-05-10T16:39:30.296Z,3.70
2023-05-10T16:41:59.632Z,3.97
2023-05-10T16:44:27.466Z,4.43
2023-05-10T16:46:56.008Z,3.97
2023-05-10T16:49:26.206Z,4.10
2023-05-10T16:51:54.412Z,5.28
2023-05-10T16:54:22.832Z,5.95
2023-05-10T16:56:50.765Z,4.95
2023-05-10T16:59:20.102Z,5.00
2023-05-10T17:01:48.227Z,5.53
2023-05-10T17:04:17.796Z,4.88
2023-05-10T17:06:45.762Z,5.30
2023-05-10T17:09:13.859Z,5.10
2023-05-10T17:11:43.091Z,4.70
2023-05-10T17:14:11.169Z,5.03
2023-05-10T17:16:40.614Z,5.50
2023-05-10T17:19:09.559Z,5.80
2023-05-10T17:21:37.633Z,6.50
2023-05-10T17:24:05.907Z,6.35
2023-05-10T17:26:34.627Z,6.90
2023-05-10T17:29:02.623Z,6.63
2023-05-10T17:31:31.101Z,6.22
2023-05-10T17:34:00.379Z,5.82
2023-05-10T17:36:28.515Z,6.75
2023-05-10T17:38:56.472Z,7.53
2023-05-10T17:41:24.529Z,7.68
2023-05-10T17:43:52.491Z,7.03
2023-05-10T17:46:20.530Z,6.88
2023-05-10T17:48:48.656Z,7.43
2023-05-10T17:51:17.964Z,8.32
2023-05-10T17:53:45.876Z,7.95
2023-05-10T17:56:13.892Z,8.00
2023-05-10T17:58:42.091Z,8.35
2023-05-10T18:01:10.084Z,8.10
2023-05-10T18:03:38.227Z,8.77
2023-05-10T18:06:06.513Z,10.02
2023-05-10T18:08:35.833Z,9.98
2023-05-10T18:11:03.767Z,9.45
2023-05-10T18:13:32.114Z,10.40
2023-05-10T18:16:00.147Z,9.57
2023-05-10T18:18:28.249Z,11.15
2023-05-10T18:20:58.285Z,11.98
2023-05-10T18:23:26.440Z,12.88
2023-05-10T18:25:55.742Z,13.20
2023-05-10T18:28:24.448Z,14.50
2023-05-10T18:30:52.622Z,13.50
2023-05-10T18:33:20.875Z,14.13
2023-05-10T18:35:49.101Z,14.55
2023-05-10T18:38:17.337Z,15.13
2023-05-10T18:40:45.240Z,13.63
2023-05-10T18:43:14.681Z,14.02
2023-05-10T18:45:43.898Z,14.68
2023-05-10T18:48:12.033Z,15.85
2023-05-10T18:50:39.888Z,16.02
2023-05-10T18:53:07.849Z,17.25
2023-05-10T18:55:35.770Z,18.30
2023-05-10T18:58:03.724Z,18.48
2023-05-10T19:00:33.260Z,17.80
2023-05-10T19:03:01.258Z,19.67
2023-05-10T19:05:30.350Z,20.52
2023-05-10T19:07:58.391Z,18.23
2023-05-10T19:10:26.262Z,18.58
2023-05-10T19:12:54.210Z,19.80
2023-05-10T19:15:22.333Z,20.85
2023-05-10T19:17:52.583Z,19.30
2023-05-10T19:20:20.790Z,20.40
2023-05-10T19:22:58.438Z,20.90
2023-05-10T19:25:36.937Z,20.85
2023-05-10T19:28:04.845Z,20.13
2023-05-10T19:30:32.890Z,18.63
2023-05-10T19:33:05.444Z,18.27
2023-05-10T19:35:33.753Z,18.73
2023-05-10T19:38:01.761Z,18.52
2023-05-10T19:40:29.711Z,20.40
2023-05-10T19:42:57.864Z,21.55
2023-05-10T19:45:26.243Z,21.40
2023-05-10T19:47:54.381Z,20.50
2023-05-10T19:50:23.695Z,22.25
2023-05-10T19:52:51.767Z,20.48
2023-05-10T19:55:27.907Z,20.55
2023-05-10T19:57:55.836Z,20.73
2023-05-10T20:00:24.252Z,21.98
2023-05-10T20:02:52.172Z,21.00
2023-05-10T20:05:20.216Z,21.55
2023-05-10T20:07:49.465Z,22.48
2023-05-10T20:10:17.948Z,23.92
2023-05-10T20:12:51.091Z,22.85
2023-05-10T20:15:20.055Z,25.08
2023-05-10T20:17:48.470Z,27.10
2023-05-10T20:20:17.167Z,28.30
2023-05-10T20:22:45.652Z,26.92
2023-05-10T20:25:15.922Z,27.02
2023-05-10T20:27:43.974Z,26.13
2023-05-10T20:30:12.651Z,24.75
2023-05-10T20:32:40.717Z,24.98
2023-05-10T20:35:09.148Z,25.65
2023-05-10T20:37:38.066Z,24.48
2023-05-10T20:40:07.021Z,22.73
2023-05-10T20:42:36.379Z,23.40
2023-05-10T20:45:04.509Z,22.33
2023-05-10T20:47:32.601Z,21.45
2023-05-10T20:50:00.812Z,21.25
2023-05-10T20:52:28.761Z,20.05
2023-05-10T20:54:56.668Z,18.75
2023-05-10T20:57:24.591Z,18.88
2023-05-10T20:59:54.604Z,17.80
2023-05-10T21:02:22.547Z,17.27
2023-05-10T21:04:50.589Z,17.83
2023-05-10T21:07:18.618Z,17.58
2023-05-10T21:09:46.551Z,18.35
2023-05-10T21:12:14.571Z,17.52
2023-05-10T21:14:43.056Z,19.13
2023-05-10T21:17:12.307Z,18.95
2023-05-10T21:19:40.189Z,20.08
2023-05-10T21:22:08.232Z,19.33
2023-05-10T21:24:36.107Z,18.80
2023-05-10T21:27:04.824Z,19.13
2023-05-10T21:29:32.688Z,19.48
2023-05-10T21:32:01.196Z,19.33
2023-05-10T21:34:31.160Z,21.65
2023-05-10T21:36:59.061Z,21.13
2023-05-10T21:39:26.936Z,21.23
2023-05-10T21:41:54.803Z,21.77
2023-05-10T21:44:22.748Z,21.15
2023-05-10T21:46:50.656Z,21.30
2023-05-10T21:49:18.914Z,21.15
2023-05-10T21:51:48.619Z,21.33
2023-05-10T21:54:16.554Z,20.95
2023-05-10T21:56:45.024Z,20.23
2023-05-10T21:59:12.974Z,20.73
2023-05-10T22:01:41.237Z,21.95
2023-05-10T22:04:09.412Z,21.15
2023-05-10T22:06:37.402Z,22.13
2023-05-10T22:09:06.807Z,21.67
2023-05-10T22:11:34.623Z,21.75
2023-05-10T22:14:02.518Z,22.40
2023-05-10T22:16:30.432Z,23.25
2023-05-10T22:18:58.375Z,22.58
2023-05-10T22:21:26.416Z,22.08
2023-05-10T22:23:54.339Z,22.08
2023-05-10T22:26:23.627Z,22.35
2023-05-10T22:28:51.673Z,22.70
2023-05-10T22:31:19.594Z,23.50
2023-05-10T22:33:47.611Z,22.13
2023-05-10T22:36:15.709Z,22.13
2023-05-10T22:38:43.756Z,22.58
2023-05-10T22:41:11.623Z,21.27
2023-05-10T22:43:40.900Z,20.77
2023-05-10T22:46:08.859Z,20.83
2023-05-10T22:48:37.138Z,21.15
2023-05-10T22:51:05.347Z,20.83
2023-05-10T22:53:33.323Z,21.55
2023-05-10T22:56:01.326Z,22.45
2023-05-10T22:58:29.352Z,22.42
2023-05-10T23:00:59.059Z,22.55
2023-05-10T23:03:27.299Z,21.65
2023-05-10T23:05:55.180Z,22.58
2023-05-10T23:08:23.474Z,22.55
2023-05-10T23:10:51.716Z,22.92
2023-05-10T23:13:21.005Z,23.30
2023-05-10T23:15:49.058Z,22.77
2023-05-10T23:18:18.427Z,23.13
2023-05-10T23:20:46.328Z,23.90
2023-05-10T23:23:14.169Z,23.60
2023-05-10T23:25:42.041Z,22.50
2023-05-10T23:28:09.957Z,22.73
2023-05-10T23:30:37.890Z,22.75
2023-05-10T23:33:05.849Z,23.00
2023-05-10T23:35:35.160Z,21.67
2023-05-10T23:38:03.164Z,23.52
2023-05-10T23:40:31.345Z,22.52
2023-05-10T23:42:59.246Z,23.48
2023-05-10T23:45:27.194Z,23.90
2023-05-10T23:47:55.192Z,23.02
2023-05-10T23:50:23.186Z,21.70
2023-05-10T23:52:52.761Z,23.60
2023-05-10T23:55:20.689Z,22.33
2023-05-10T23:57:57.680Z,23.77
